Nearby METAR Reports

 

LIML - Milano/Linate, Italy
Distance from station: NW 27km
Updated: 18/01/2019 03:50
Mist, Mostly cloudy
Mist, Mostly cloudy
 Wind from W
Wind: W 17 km/h
Temperature: 5°C
Wind Chill: 2°C
Dew Point: 5°C
Humidity: 100%
Barometer: 1009 hPa
Summary: Mist
Clouds: Mostly cloudy
Visibility: 2 km
Cloud details: Mostly cloudy 152 m
2019/01/18 02:50 LIML 180250Z AUTO 27009KT 2100 BR BKN005/// 05/05 Q1009
LIME - Bergamo/Orio Ser, Italy
Distance from station: NNE 43km
Updated: 18/01/2019 03:50
Mist, Mostly cloudy
Mist, Mostly cloudy
 Wind from WSW
Wind: WSW 7 km/h
Temperature: 5°C
Wind Chill: 3°C
Dew Point: 4°C
Humidity: 93%
Barometer: 1008 hPa
Summary: Mist
Clouds: Mostly cloudy
Visibility: 1 km
Cloud details: Mostly cloudy 91 m
2019/01/18 02:50 LIME 180250Z 24004KT 1000 R28/P1500N BR BKN003 05/04 Q1008 NOSIG
 
LIMS - Piacenza, it-Afb, Italy
Distance from station: SSE 45km
Updated: 17/01/2019 18:55
NOT Current
Light rain, Fog, Partly cloudy
Light rain, Fog, Partly cloudy
 Wind from NE
Wind: NE 4 km/h
Temperature: 5°C
Dew Point: 5°C
Humidity: 100%
Barometer: 1010 hPa
Summary: Light rain, Fog
Clouds: Partly cloudy
Visibility: 1 km
Cloud details: Mostly cloudy 91 m
Partly cloudy 122 m
2019/01/17 17:55 LIMS 171755Z 05002KT 0700 R30/1000 R12/1100 -RA FG BKN003 SCT004 05/05 Q1010
LIPO - Brescia/Montichi, Italy
Distance from station: ENE 65km
Updated: 18/01/2019 03:50
Mist, Mostly cloudy
Mist, Mostly cloudy
 Wind from SW
Wind: SW 11 km/h
Temperature: 5°C
Wind Chill: 2°C
Dew Point: 5°C
Humidity: 100%
Barometer: 1009 hPa
Summary: Mist
Clouds: Mostly cloudy
Visibility: 2 km
Cloud details: Mostly cloudy 610 m
2019/01/18 02:50 LIPO 180250Z 22006KT 2000 BR BKN020 05/05 Q1009